Evelyn Maersk — OXHV2 — position and weather

sailwx.info

Track history (hours):
 
Tides and Currents Weather Stations Pressure Air Temp Water Temp Dewpoint Dewpoint Depression Visibility Wind Speed Wind Dir Waves Ship Positions

Evelyn Maersk

Last reported at 2015-Apr-02 09:22 UTC. Time now 2015-Apr-02 09:44 UTC.
Position N 53°54' E 006°53'.

Length 398 m; draft 11.2 m.

Type: Cargo ship. MMSI: 220496000.

Date/timePositionNaut miles runAvg speedWind from/ knotsBaromVisibWave heightAir tempDewpointWater temp
2015-Apr-02 09:22N 53°54' E 006°53'911.8
2015-Apr-02 08:33N 53°56' E 007°09'1111.3
2015-Apr-02 07:33N 53°59' E 007°27'9 8.4
2015-Apr-02 06:32N 53°55' E 007°41'1212.5
2015-Apr-02 05:33N 53°51' E 008°01'1313.1
2015-Apr-02 04:34N 53°43' E 008°18'1010.3
2015-Apr-02 03:34N 53°36' E 008°31'0 0.0
2015-Apr-02 02:31N 53°36' E 008°31'0 0.0
2015-Apr-02 01:31N 53°36' E 008°31'0 0.0
2015-Apr-02 00:28N 53°36' E 008°31'0 0.0
2015-Apr-01 23:31N 53°36' E 008°31'0 0.0
2015-Apr-01 22:28N 53°36' E 008°31'0 0.0
2015-Apr-01 21:31N 53°36' E 008°31'0 0.0
2015-Apr-01 20:31N 53°36' E 008°31'0 0.0
2015-Apr-01 19:25N 53°36' E 008°31'0 0.0
2015-Apr-01 18:25N 53°36' E 008°31'0 0.0
2015-Apr-01 17:31N 53°36' E 008°31'0 0.0
2015-Apr-01 16:31N 53°36' E 008°31'0 0.0
2015-Apr-01 15:28N 53°36' E 008°31'0 0.0
2015-Apr-01 14:31N 53°36' E 008°31'0 0.0
2015-Apr-01 13:22N 53°36' E 008°31'0 0.0
2015-Apr-01 12:19N 53°36' E 008°31'0 0.0
2015-Apr-01 11:22N 53°36' E 008°31'0 0.0
2015-Apr-01 10:31N 53°36' E 008°31'0 0.0
2015-Apr-01 09:31N 53°36' E 008°31'0 0.0
2015-Apr-01 08:31N 53°36' E 008°31'0 0.0
2015-Apr-01 07:31N 53°36' E 008°31'0 0.0
2015-Apr-01 06:31N 53°36' E 008°31'0 0.0
2015-Apr-01 05:31N 53°36' E 008°31'0 0.0
2015-Apr-01 04:31N 53°36' E 008°31'0 0.0
2015-Apr-01 03:31N 53°36' E 008°31'0 0.0
2015-Apr-01 02:25N 53°36' E 008°31'0 0.0
2015-Apr-01 01:31N 53°36' E 008°31'0 0.0
2015-Apr-01 00:25N 53°36' E 008°31'0 0.0
2015-Mar-31 23:22N 53°36' E 008°31'0 0.0
2015-Mar-31 22:31N 53°36' E 008°31'0 0.0
2015-Mar-31 21:31N 53°36' E 008°31'0 0.0
2015-Mar-31 20:31N 53°36' E 008°31'0 0.0
2015-Mar-31 19:31N 53°36' E 008°31'0 0.0
2015-Mar-31 18:31N 53°36' E 008°31'0 0.0
2015-Mar-31 17:31N 53°36' E 008°31'0 0.0
2015-Mar-31 16:31N 53°36' E 008°31'0 0.0
2015-Mar-31 15:31N 53°36' E 008°31'0 0.0
2015-Mar-31 14:31N 53°36' E 008°31'0 0.0
2015-Mar-31 13:31N 53°36' E 008°31'0 0.0
2015-Mar-31 12:31N 53°36' E 008°31'0 0.0
2015-Mar-31 11:31N 53°36' E 008°31'0 0.0
2015-Mar-31 10:28N 53°36' E 008°31'0 0.0
2015-Mar-31 09:31N 53°36' E 008°31'0 0.0
2015-Mar-31 08:31N 53°36' E 008°31'0 0.0
2015-Mar-31 07:31N 53°36' E 008°31'0 0.0
2015-Mar-31 06:31N 53°36' E 008°31'0 0.0
2015-Mar-31 05:33N 53°36' E 008°31'0 0.4
2015-Mar-31 04:33N 53°36' E 008°31'7 6.5
2015-Mar-31 03:33N 53°40' E 008°23'1211.9
2015-Mar-31 02:33N 53°48' E 008°08'1313.3
2015-Mar-31 01:33N 53°53' E 007°47'1313.3
2015-Mar-31 00:33N 54°03' E 007°32'1212.0
2015-Mar-30 23:33N 54°14' E 007°24'8 8.2
2015-Mar-30 22:33N 54°21' E 007°18'8 8.0
2015-Mar-30 21:33N 54°28' E 007°12'9 8.6
2015-Mar-30 20:33N 54°36' E 007°06'6 6.0
2015-Mar-30 19:33N 54°31' E 007°11'6 6.3
2015-Mar-30 18:33N 54°26' E 007°17'6 5.9
2015-Mar-30 17:33N 54°20' E 007°21'6 6.3
2015-Mar-30 16:33N 54°15' E 007°26'5 5.5
2015-Mar-30 15:34N 54°10' E 007°30'6 5.9
2015-Mar-30 14:33N 54°05' E 007°35'4 4.3
2015-Mar-30 13:33N 54°01' E 007°38'8 8.3
2015-Mar-30 12:33N 53°56' E 007°49'1412.9
2015-Mar-30 11:29N 54°00' E 008°11'1616.7
2015-Mar-30 10:34N 53°57' E 008°37'1212.3
2015-Mar-30 09:34N 53°51' E 008°55'1111.4
2015-Mar-30 08:33N 53°53' E 009°14'9 9.4
2015-Mar-30 07:33N 53°46' E 009°24'10 9.7
2015-Mar-30 06:33N 53°37' E 009°33'1010.3
2015-Mar-30 05:33N 53°33' E 009°49'4 4.1
2015-Mar-30 04:33N 53°32' E 009°55'0 0.0
2015-Mar-30 03:33N 53°32' E 009°55'0 0.0
2015-Mar-30 02:29N 53°32' E 009°55'0 0.0
2015-Mar-30 01:32N 53°32' E 009°55'0 0.0
2015-Mar-30 00:32N 53°32' E 009°55'0 0.0
2015-Mar-29 23:32N 53°32' E 009°55'0 0.0
2015-Mar-29 22:33N 53°32' E 009°55'0 0.0
2015-Mar-29 21:32N 53°32' E 009°55'0 0.0
2015-Mar-29 20:32N 53°32' E 009°55'0 0.0
2015-Mar-29 19:32N 53°32' E 009°55'0 0.0
2015-Mar-29 18:29N 53°32' E 009°55'0 0.0
2015-Mar-29 17:32N 53°32' E 009°55'0 0.0
2015-Mar-29 16:32N 53°32' E 009°55'0 0.0
2015-Mar-29 15:23N 53°32' E 009°55'0 0.0
2015-Mar-29 14:29N 53°32' E 009°55'0 0.0
2015-Mar-29 13:32N 53°32' E 009°55'0 0.0
2015-Mar-29 12:23N 53°32' E 009°55'0 0.0
2015-Mar-29 11:32N 53°32' E 009°55'0 0.0
2015-Mar-29 10:23N 53°32' E 009°55'0 0.0
2015-Mar-29 09:29N 53°32' E 009°55'0 0.0
2015-Mar-29 08:29N 53°32' E 009°55'0 0.0
2015-Mar-29 07:29N 53°32' E 009°55'0 0.0
2015-Mar-29 06:32N 53°32' E 009°55'0 0.0
2015-Mar-29 05:32N 53°32' E 009°55'0 0.0
2015-Mar-29 04:29N 53°32' E 009°55'0 0.0
2015-Mar-29 03:31N 53°32' E 009°55'0 0.0
2015-Mar-29 02:31N 53°32' E 009°55'0 0.0
2015-Mar-29 01:29N 53°32' E 009°55'0 0.0
2015-Mar-29 00:29N 53°32' E 009°55'0 0.0
2015-Mar-28 23:29N 53°32' E 009°55'0 0.0
2015-Mar-28 22:32N 53°32' E 009°55'1 1.5
2015-Mar-28 21:33N 53°32' E 009°53'10 9.6
2015-Mar-28 20:33N 53°35' E 009°37'1211.7
2015-Mar-28 19:33N 53°44' E 009°26'1313.0
2015-Mar-28 18:33N 53°53' E 009°09'1413.8
2015-Mar-28 17:33N 53°51' E 008°46'1514.8
2015-Mar-28 16:33N 53°59' E 008°25'1615.6
2015-Mar-28 15:33N 54°01' E 007°58'1 0.6
2015-Mar-28 14:33N 54°01' E 007°59'5 4.6
2015-Mar-28 13:33N 53°60' E 007°52'2 1.8
2015-Mar-28 12:33N 53°59' E 007°49'7 6.4
2015-Mar-28 11:32N 53°56' E 007°39'7 7.1
2015-Mar-28 10:33N 53°55' E 007°27'10 9.5
2015-Mar-28 09:33N 53°53' E 007°12'1411.6
2015-Mar-28 08:19N 53°49' E 006°48'911.6
2015-Mar-28 07:33N 53°47' E 006°33'1211.8
2015-Mar-28 06:31N 53°43' E 006°14'1111.9
2015-Mar-28 05:33N 53°40' E 005°55'1212.2
2015-Mar-28 04:33N 53°36' E 005°36'1212.3
2015-Mar-28 03:33N 53°31' E 005°17'1212.5
2015-Mar-28 02:33N 53°28' E 004°57'1212.0
2015-Mar-28 01:33N 53°21' E 004°40'1313.1
2015-Mar-28 00:33N 53°10' E 004°30'1413.5
2015-Mar-27 23:33N 52°57' E 004°20'1313.4
2015-Mar-27 22:33N 52°46' E 004°09'1413.5
2015-Mar-27 21:33N 52°36' E 003°54'1313.2
2015-Mar-27 20:33N 52°27' E 003°37'1514.1
2015-Mar-27 19:32N 52°17' E 003°21'1514.8
2015-Mar-27 18:32N 52°06' E 003°04'2713.1
2015-Mar-27 16:28N 51°42' E 002°44'1213.1
2015-Mar-27 15:34N 51°30' E 002°42'9 8.6
2015-Mar-27 14:33N 51°25' E 002°53'1615.7
2015-Mar-27 13:33N 51°24' E 003°18'1212.0
2015-Mar-27 12:34N 51°26' E 003°37'1211.7
2015-Mar-27 11:33N 51°22' E 003°55'9 9.2
2015-Mar-27 10:33N 51°23' E 004°09'7 6.5
2015-Mar-27 09:34N 51°18' E 004°16'0 0.4
2015-Mar-27 08:33N 51°18' E 004°16'0 0.0
2015-Mar-27 07:30N 51°18' E 004°16'0 0.0
2015-Mar-27 06:33N 51°18' E 004°16'0 0.0
2015-Mar-27 05:30N 51°18' E 004°16'0 0.0
2015-Mar-27 04:33N 51°18' E 004°16'0 0.0
2015-Mar-27 03:33N 51°18' E 004°16'0 0.0
2015-Mar-27 02:33N 51°18' E 004°16'0 0.0
2015-Mar-27 01:33N 51°18' E 004°16'0 0.0
2015-Mar-27 00:24N 51°18' E 004°16'0 0.0
2015-Mar-26 23:33N 51°18' E 004°16'0 0.0
2015-Mar-26 22:33N 51°18' E 004°16'0 0.0
2015-Mar-26 21:27N 51°18' E 004°16'0 0.0
2015-Mar-26 20:30N 51°18' E 004°16'0 0.0
2015-Mar-26 19:18N 51°18' E 004°16'0 0.0
2015-Mar-26 18:33N 51°18' E 004°16'0 0.0
2015-Mar-26 17:33N 51°18' E 004°16'0 0.0
2015-Mar-26 16:21N 51°18' E 004°16'0 0.0
2015-Mar-26 15:33N 51°18' E 004°16'0 0.0
2015-Mar-26 14:33N 51°18' E 004°16'0 0.0
2015-Mar-26 13:33N 51°18' E 004°16'0 0.0
2015-Mar-26 12:30N 51°18' E 004°16'0 0.0
2015-Mar-26 11:33N 51°18' E 004°16'0 0.0
2015-Mar-26 10:30N 51°18' E 004°16'0 0.0
2015-Mar-26 09:33N 51°18' E 004°16'0 0.0
2015-Mar-26 08:33N 51°18' E 004°16'0 0.0
2015-Mar-26 07:33N 51°18' E 004°16'0 0.0
2015-Mar-26 06:33N 51°18' E 004°16'0 0.0
2015-Mar-26 05:30N 51°18' E 004°16'0 0.0
2015-Mar-26 04:31N 51°18' E 004°16'1 1.1
2015-Mar-26 03:34N 51°19' E 004°16'7 6.5
2015-Mar-26 02:33N 51°22' E 004°08'8 8.4
2015-Mar-26 01:33N 51°22' E 003°54'1111.3
2015-Mar-26 00:33N 51°26' E 003°38'1010.0
2015-Mar-25 23:33N 51°24' E 003°22'1211.9
2015-Mar-25 22:33N 51°25' E 003°03'1211.6
2015-Mar-25 21:33N 51°24' E 002°44'9 9.3
2015-Mar-25 20:33N 51°22' E 002°30'10 9.9
2015-Mar-25 19:33N 51°17' E 002°16'1212.5
2015-Mar-25 18:33N 51°10' E 001°59'1312.9
2015-Mar-25 17:33N 51°04' E 001°41'1414.1
2015-Mar-25 16:33N 50°53' E 001°27'1513.3
2015-Mar-25 15:26N 50°40' E 001°16'1413.0
2015-Mar-25 14:22N 50°31' E 000°59'1112.9
2015-Mar-25 13:29N 50°26' E 000°43'1313.6
2015-Mar-25 12:33N 50°23' E 000°24'2713.6
2015-Mar-25 10:33N 50°03' W 000°05'1515.7
2015-Mar-25 09:33N 49°48' W 000°09'1413.6
2015-Mar-25 08:33N 49°34' W 000°11'1212.0
2015-Mar-25 07:33N 49°28' E 000°06'2 1.8
2015-Mar-25 06:33N 49°28' E 000°08'0 0.0
2015-Mar-25 05:33N 49°28' E 000°08'0 0.0
2015-Mar-25 04:33N 49°28' E 000°08'0 0.0
2015-Mar-25 03:33N 49°28' E 000°08'0 0.0
2015-Mar-25 02:33N 49°28' E 000°08'0 0.0
2015-Mar-25 01:33N 49°28' E 000°08'0 0.0
2015-Mar-25 00:33N 49°28' E 000°08'0 0.0
2015-Mar-24 23:33N 49°28' E 000°08'0 0.0
2015-Mar-24 22:33N 49°28' E 000°08'0 0.0
2015-Mar-24 21:33N 49°28' E 000°08'0 0.1
2015-Mar-24 20:34N 49°28' E 000°08'2 1.8
2015-Mar-24 19:34N 49°28' E 000°06'1212.3
2015-Mar-24 18:33N 49°33' W 000°12'1110.7
2015-Mar-24 17:34N 49°37' W 000°28'1514.5
2015-Mar-24 16:33N 49°43' W 000°48'  
Track history (hours):
 
Tides and Currents Weather Stations Pressure Air Temp Water Temp Dewpoint Dewpoint Depression Visibility Wind Speed Wind Dir Waves Ship Positions

Evelyn Maersk

Last reported at 2015-Apr-02 09:22 UTC. Time now 2015-Apr-02 09:44 UTC.
Position N 53°54' E 006°53'.

Length 398 m; draft 11.2 m.

Type: Cargo ship. MMSI: 220496000.

Date/timePositionNaut miles runAvg speedWind from/ knotsBaromVisibWave heightAir tempDewpointWater temp
2015-Apr-02 09:22N 53°54' E 006°53'911.8
2015-Apr-02 08:33N 53°56' E 007°09'1111.3
2015-Apr-02 07:33N 53°59' E 007°27'9 8.4
2015-Apr-02 06:32N 53°55' E 007°41'1212.5
2015-Apr-02 05:33N 53°51' E 008°01'1313.1
2015-Apr-02 04:34N 53°43' E 008°18'1010.3
2015-Apr-02 03:34N 53°36' E 008°31'0 0.0
2015-Apr-02 02:31N 53°36' E 008°31'0 0.0
2015-Apr-02 01:31N 53°36' E 008°31'0 0.0
2015-Apr-02 00:28N 53°36' E 008°31'0 0.0
2015-Apr-01 23:31N 53°36' E 008°31'0 0.0
2015-Apr-01 22:28N 53°36' E 008°31'0 0.0
2015-Apr-01 21:31N 53°36' E 008°31'0 0.0
2015-Apr-01 20:31N 53°36' E 008°31'0 0.0
2015-Apr-01 19:25N 53°36' E 008°31'0 0.0
2015-Apr-01 18:25N 53°36' E 008°31'0 0.0
2015-Apr-01 17:31N 53°36' E 008°31'0 0.0
2015-Apr-01 16:31N 53°36' E 008°31'0 0.0
2015-Apr-01 15:28N 53°36' E 008°31'0 0.0
2015-Apr-01 14:31N 53°36' E 008°31'0 0.0
2015-Apr-01 13:22N 53°36' E 008°31'0 0.0
2015-Apr-01 12:19N 53°36' E 008°31'0 0.0
2015-Apr-01 11:22N 53°36' E 008°31'0 0.0
2015-Apr-01 10:31N 53°36' E 008°31'0 0.0
2015-Apr-01 09:31N 53°36' E 008°31'0 0.0
2015-Apr-01 08:31N 53°36' E 008°31'0 0.0
2015-Apr-01 07:31N 53°36' E 008°31'0 0.0
2015-Apr-01 06:31N 53°36' E 008°31'0 0.0
2015-Apr-01 05:31N 53°36' E 008°31'0 0.0
2015-Apr-01 04:31N 53°36' E 008°31'0 0.0
2015-Apr-01 03:31N 53°36' E 008°31'0 0.0
2015-Apr-01 02:25N 53°36' E 008°31'0 0.0
2015-Apr-01 01:31N 53°36' E 008°31'0 0.0
2015-Apr-01 00:25N 53°36' E 008°31'0 0.0
2015-Mar-31 23:22N 53°36' E 008°31'0 0.0
2015-Mar-31 22:31N 53°36' E 008°31'0 0.0
2015-Mar-31 21:31N 53°36' E 008°31'0 0.0
2015-Mar-31 20:31N 53°36' E 008°31'0 0.0
2015-Mar-31 19:31N 53°36' E 008°31'0 0.0
2015-Mar-31 18:31N 53°36' E 008°31'0 0.0
2015-Mar-31 17:31N 53°36' E 008°31'0 0.0
2015-Mar-31 16:31N 53°36' E 008°31'0 0.0
2015-Mar-31 15:31N 53°36' E 008°31'0 0.0
2015-Mar-31 14:31N 53°36' E 008°31'0 0.0
2015-Mar-31 13:31N 53°36' E 008°31'0 0.0
2015-Mar-31 12:31N 53°36' E 008°31'0 0.0
2015-Mar-31 11:31N 53°36' E 008°31'0 0.0
2015-Mar-31 10:28N 53°36' E 008°31'0 0.0
2015-Mar-31 09:31N 53°36' E 008°31'0 0.0
2015-Mar-31 08:31N 53°36' E 008°31'0 0.0
2015-Mar-31 07:31N 53°36' E 008°31'0 0.0
2015-Mar-31 06:31N 53°36' E 008°31'0 0.0
2015-Mar-31 05:33N 53°36' E 008°31'0 0.4
2015-Mar-31 04:33N 53°36' E 008°31'7 6.5
2015-Mar-31 03:33N 53°40' E 008°23'1211.9
2015-Mar-31 02:33N 53°48' E 008°08'1313.3
2015-Mar-31 01:33N 53°53' E 007°47'1313.3
2015-Mar-31 00:33N 54°03' E 007°32'1212.0
2015-Mar-30 23:33N 54°14' E 007°24'8 8.2
2015-Mar-30 22:33N 54°21' E 007°18'8 8.0
2015-Mar-30 21:33N 54°28' E 007°12'9 8.6
2015-Mar-30 20:33N 54°36' E 007°06'6 6.0
2015-Mar-30 19:33N 54°31' E 007°11'6 6.3
2015-Mar-30 18:33N 54°26' E 007°17'6 5.9
2015-Mar-30 17:33N 54°20' E 007°21'6 6.3
2015-Mar-30 16:33N 54°15' E 007°26'5 5.5
2015-Mar-30 15:34N 54°10' E 007°30'6 5.9
2015-Mar-30 14:33N 54°05' E 007°35'4 4.3
2015-Mar-30 13:33N 54°01' E 007°38'8 8.3
2015-Mar-30 12:33N 53°56' E 007°49'1412.9
2015-Mar-30 11:29N 54°00' E 008°11'1616.7
2015-Mar-30 10:34N 53°57' E 008°37'1212.3
2015-Mar-30 09:34N 53°51' E 008°55'1111.4
2015-Mar-30 08:33N 53°53' E 009°14'9 9.4
2015-Mar-30 07:33N 53°46' E 009°24'10 9.7
2015-Mar-30 06:33N 53°37' E 009°33'1010.3
2015-Mar-30 05:33N 53°33' E 009°49'4 4.1
2015-Mar-30 04:33N 53°32' E 009°55'0 0.0
2015-Mar-30 03:33N 53°32' E 009°55'0 0.0
2015-Mar-30 02:29N 53°32' E 009°55'0 0.0
2015-Mar-30 01:32N 53°32' E 009°55'0 0.0
2015-Mar-30 00:32N 53°32' E 009°55'0 0.0
2015-Mar-29 23:32N 53°32' E 009°55'0 0.0
2015-Mar-29 22:33N 53°32' E 009°55'0 0.0
2015-Mar-29 21:32N 53°32' E 009°55'0 0.0
2015-Mar-29 20:32N 53°32' E 009°55'0 0.0
2015-Mar-29 19:32N 53°32' E 009°55'0 0.0
2015-Mar-29 18:29N 53°32' E 009°55'0 0.0
2015-Mar-29 17:32N 53°32' E 009°55'0 0.0
2015-Mar-29 16:32N 53°32' E 009°55'0 0.0
2015-Mar-29 15:23N 53°32' E 009°55'0 0.0
2015-Mar-29 14:29N 53°32' E 009°55'0 0.0
2015-Mar-29 13:32N 53°32' E 009°55'0 0.0
2015-Mar-29 12:23N 53°32' E 009°55'0 0.0
2015-Mar-29 11:32N 53°32' E 009°55'0 0.0
2015-Mar-29 10:23N 53°32' E 009°55'0 0.0
2015-Mar-29 09:29N 53°32' E 009°55'0 0.0
2015-Mar-29 08:29N 53°32' E 009°55'0 0.0
2015-Mar-29 07:29N 53°32' E 009°55'0 0.0
2015-Mar-29 06:32N 53°32' E 009°55'0 0.0
2015-Mar-29 05:32N 53°32' E 009°55'0 0.0
2015-Mar-29 04:29N 53°32' E 009°55'0 0.0
2015-Mar-29 03:31N 53°32' E 009°55'0 0.0
2015-Mar-29 02:31N 53°32' E 009°55'0 0.0
2015-Mar-29 01:29N 53°32' E 009°55'0 0.0
2015-Mar-29 00:29N 53°32' E 009°55'0 0.0
2015-Mar-28 23:29N 53°32' E 009°55'0 0.0
2015-Mar-28 22:32N 53°32' E 009°55'1 1.5
2015-Mar-28 21:33N 53°32' E 009°53'10 9.6
2015-Mar-28 20:33N 53°35' E 009°37'1211.7
2015-Mar-28 19:33N 53°44' E 009°26'1313.0
2015-Mar-28 18:33N 53°53' E 009°09'1413.8
2015-Mar-28 17:33N 53°51' E 008°46'1514.8
2015-Mar-28 16:33N 53°59' E 008°25'1615.6
2015-Mar-28 15:33N 54°01' E 007°58'1 0.6
2015-Mar-28 14:33N 54°01' E 007°59'5 4.6
2015-Mar-28 13:33N 53°60' E 007°52'2 1.8
2015-Mar-28 12:33N 53°59' E 007°49'7 6.4
2015-Mar-28 11:32N 53°56' E 007°39'7 7.1
2015-Mar-28 10:33N 53°55' E 007°27'10 9.5
2015-Mar-28 09:33N 53°53' E 007°12'1411.6
2015-Mar-28 08:19N 53°49' E 006°48'911.6
2015-Mar-28 07:33N 53°47' E 006°33'1211.8
2015-Mar-28 06:31N 53°43' E 006°14'1111.9
2015-Mar-28 05:33N 53°40' E 005°55'1212.2
2015-Mar-28 04:33N 53°36' E 005°36'1212.3
2015-Mar-28 03:33N 53°31' E 005°17'1212.5
2015-Mar-28 02:33N 53°28' E 004°57'1212.0
2015-Mar-28 01:33N 53°21' E 004°40'1313.1
2015-Mar-28 00:33N 53°10' E 004°30'1413.5
2015-Mar-27 23:33N 52°57' E 004°20'1313.4
2015-Mar-27 22:33N 52°46' E 004°09'1413.5
2015-Mar-27 21:33N 52°36' E 003°54'1313.2
2015-Mar-27 20:33N 52°27' E 003°37'1514.1
2015-Mar-27 19:32N 52°17' E 003°21'1514.8
2015-Mar-27 18:32N 52°06' E 003°04'2713.1
2015-Mar-27 16:28N 51°42' E 002°44'1213.1
2015-Mar-27 15:34N 51°30' E 002°42'9 8.6
2015-Mar-27 14:33N 51°25' E 002°53'1615.7
2015-Mar-27 13:33N 51°24' E 003°18'1212.0
2015-Mar-27 12:34N 51°26' E 003°37'1211.7
2015-Mar-27 11:33N 51°22' E 003°55'9 9.2
2015-Mar-27 10:33N 51°23' E 004°09'7 6.5
2015-Mar-27 09:34N 51°18' E 004°16'0 0.4
2015-Mar-27 08:33N 51°18' E 004°16'0 0.0
2015-Mar-27 07:30N 51°18' E 004°16'0 0.0
2015-Mar-27 06:33N 51°18' E 004°16'0 0.0
2015-Mar-27 05:30N 51°18' E 004°16'0 0.0
2015-Mar-27 04:33N 51°18' E 004°16'0 0.0
2015-Mar-27 03:33N 51°18' E 004°16'0 0.0
2015-Mar-27 02:33N 51°18' E 004°16'0 0.0
2015-Mar-27 01:33N 51°18' E 004°16'0 0.0
2015-Mar-27 00:24N 51°18' E 004°16'0 0.0
2015-Mar-26 23:33N 51°18' E 004°16'0 0.0
2015-Mar-26 22:33N 51°18' E 004°16'0 0.0
2015-Mar-26 21:27N 51°18' E 004°16'0 0.0
2015-Mar-26 20:30N 51°18' E 004°16'0 0.0
2015-Mar-26 19:18N 51°18' E 004°16'0 0.0
2015-Mar-26 18:33N 51°18' E 004°16'0 0.0
2015-Mar-26 17:33N 51°18' E 004°16'0 0.0
2015-Mar-26 16:21N 51°18' E 004°16'0 0.0
2015-Mar-26 15:33N 51°18' E 004°16'0 0.0
2015-Mar-26 14:33N 51°18' E 004°16'0 0.0
2015-Mar-26 13:33N 51°18' E 004°16'0 0.0
2015-Mar-26 12:30N 51°18' E 004°16'0 0.0
2015-Mar-26 11:33N 51°18' E 004°16'0 0.0
2015-Mar-26 10:30N 51°18' E 004°16'0 0.0
2015-Mar-26 09:33N 51°18' E 004°16'0 0.0
2015-Mar-26 08:33N 51°18' E 004°16'0 0.0
2015-Mar-26 07:33N 51°18' E 004°16'0 0.0
2015-Mar-26 06:33N 51°18' E 004°16'0 0.0
2015-Mar-26 05:30N 51°18' E 004°16'0 0.0
2015-Mar-26 04:31N 51°18' E 004°16'1 1.1
2015-Mar-26 03:34N 51°19' E 004°16'7 6.5
2015-Mar-26 02:33N 51°22' E 004°08'8 8.4
2015-Mar-26 01:33N 51°22' E 003°54'1111.3
2015-Mar-26 00:33N 51°26' E 003°38'1010.0
2015-Mar-25 23:33N 51°24' E 003°22'1211.9
2015-Mar-25 22:33N 51°25' E 003°03'1211.6
2015-Mar-25 21:33N 51°24' E 002°44'9 9.3
2015-Mar-25 20:33N 51°22' E 002°30'10 9.9
2015-Mar-25 19:33N 51°17' E 002°16'1212.5
2015-Mar-25 18:33N 51°10' E 001°59'1312.9
2015-Mar-25 17:33N 51°04' E 001°41'1414.1
2015-Mar-25 16:33N 50°53' E 001°27'1513.3
2015-Mar-25 15:26N 50°40' E 001°16'1413.0
2015-Mar-25 14:22N 50°31' E 000°59'1112.9
2015-Mar-25 13:29N 50°26' E 000°43'1313.6
2015-Mar-25 12:33N 50°23' E 000°24'2713.6
2015-Mar-25 10:33N 50°03' W 000°05'1515.7
2015-Mar-25 09:33N 49°48' W 000°09'1413.6
2015-Mar-25 08:33N 49°34' W 000°11'1212.0
2015-Mar-25 07:33N 49°28' E 000°06'2 1.8
2015-Mar-25 06:33N 49°28' E 000°08'0 0.0
2015-Mar-25 05:33N 49°28' E 000°08'0 0.0
2015-Mar-25 04:33N 49°28' E 000°08'0 0.0
2015-Mar-25 03:33N 49°28' E 000°08'0 0.0
2015-Mar-25 02:33N 49°28' E 000°08'0 0.0
2015-Mar-25 01:33N 49°28' E 000°08'0 0.0
2015-Mar-25 00:33N 49°28' E 000°08'0 0.0
2015-Mar-24 23:33N 49°28' E 000°08'0 0.0
2015-Mar-24 22:33N 49°28' E 000°08'0 0.0
2015-Mar-24 21:33N 49°28' E 000°08'0 0.1
2015-Mar-24 20:34N 49°28' E 000°08'2 1.8
2015-Mar-24 19:34N 49°28' E 000°06'1212.3
2015-Mar-24 18:33N 49°33' W 000°12'1110.7
2015-Mar-24 17:34N 49°37' W 000°28'1514.5
2015-Mar-24 16:33N 49°43' W 000°48'  

Dump ship's entire track history